createdAt,value
2023-04-07T00:00:26.996Z,5.07
2023-04-07T00:02:54.181Z,4.65
2023-04-07T00:05:21.299Z,4.90
2023-04-07T00:07:55.645Z,4.47
2023-04-07T00:10:23.628Z,3.67
2023-04-07T00:12:50.498Z,4.38
2023-04-07T00:15:17.461Z,4.82
2023-04-07T00:17:44.391Z,4.47
2023-04-07T00:20:12.208Z,3.88
2023-04-07T00:22:39.811Z,4.25
2023-04-07T00:25:07.537Z,4.38
2023-04-07T00:27:34.464Z,4.40
2023-04-07T00:30:01.508Z,5.38
2023-04-07T00:32:28.325Z,3.80
2023-04-07T00:34:55.232Z,4.00
2023-04-07T00:37:22.177Z,4.38
2023-04-07T00:39:49.092Z,3.80
2023-04-07T00:42:15.887Z,3.78
2023-04-07T00:44:42.794Z,3.35
2023-04-07T00:47:09.623Z,3.83
2023-04-07T00:49:39.484Z,4.43
2023-04-07T00:52:07.929Z,3.65
2023-04-07T00:54:34.796Z,3.85
2023-04-07T00:57:01.929Z,5.30
2023-04-07T00:59:31.380Z,3.67
2023-04-07T01:02:15.781Z,4.65
2023-04-07T01:05:03.607Z,3.67
2023-04-07T01:07:58.103Z,5.00
2023-04-07T01:10:46.548Z,3.58
2023-04-07T01:13:26.639Z,3.47
2023-04-07T01:15:57.919Z,3.30
2023-04-07T01:18:34.566Z,3.60
2023-04-07T01:21:07.747Z,3.30
2023-04-07T01:23:57.109Z,3.38
2023-04-07T01:26:29.435Z,4.88
2023-04-07T01:29:48.441Z,3.47
2023-04-07T01:32:20.362Z,3.58
2023-04-07T01:34:50.926Z,3.92
2023-04-07T01:37:18.841Z,4.35
2023-04-07T01:39:45.824Z,3.10
2023-04-07T01:42:14.364Z,3.35
2023-04-07T01:44:42.873Z,3.38
2023-04-07T01:47:10.433Z,2.85
2023-04-07T01:49:38.267Z,4.53
2023-04-07T01:52:06.344Z,3.10
2023-04-07T01:54:34.414Z,3.80
2023-04-07T01:57:01.648Z,3.22
2023-04-07T01:59:28.715Z,2.97
2023-04-07T02:01:55.801Z,3.22
2023-04-07T02:04:40.248Z,3.33
2023-04-07T02:07:15.776Z,2.58
2023-04-07T02:09:44.836Z,4.72
2023-04-07T02:12:15.984Z,2.92
2023-04-07T02:14:44.594Z,2.83
2023-04-07T02:17:15.500Z,3.72
2023-04-07T02:22:12.604Z,3.13
2023-04-07T02:24:45.452Z,2.58
2023-04-07T02:27:12.253Z,4.00
2023-04-07T02:29:39.159Z,2.40
2023-04-07T02:32:06.695Z,2.65
2023-04-07T02:34:33.573Z,2.80
2023-04-07T02:37:00.914Z,2.63
2023-04-07T02:39:27.880Z,2.17
2023-04-07T02:41:54.721Z,2.55
2023-04-07T02:44:21.521Z,2.90
2023-04-07T02:46:48.350Z,3.10
2023-04-07T02:49:15.135Z,2.55
2023-04-07T02:51:41.998Z,4.63
2023-04-07T02:54:08.885Z,2.17
2023-04-07T02:56:35.796Z,2.40
2023-04-07T02:59:02.647Z,2.80
2023-04-07T03:01:29.532Z,2.78
2023-04-07T03:03:56.741Z,2.20
2023-04-07T03:06:23.995Z,4.95
2023-04-07T03:08:50.901Z,2.50
2023-04-07T03:11:17.763Z,2.47
2023-04-07T03:13:44.594Z,2.60
2023-04-07T03:16:23.827Z,2.42
2023-04-07T03:18:50.912Z,2.38
2023-04-07T03:21:17.861Z,2.83
2023-04-07T03:23:44.722Z,2.90
2023-04-07T03:26:11.570Z,2.50
2023-04-07T03:28:38.396Z,2.92
2023-04-07T03:31:05.384Z,6.38
2023-04-07T03:33:32.326Z,6.57
2023-04-07T03:35:59.262Z,3.47
2023-04-07T03:38:26.550Z,4.90
2023-04-07T03:40:53.416Z,3.03
2023-04-07T03:43:20.229Z,2.78
2023-04-07T03:45:47.382Z,2.55
2023-04-07T03:48:14.331Z,2.30
2023-04-07T03:50:41.363Z,2.25
2023-04-07T03:53:09.246Z,2.60
2023-04-07T03:55:37.158Z,2.70
2023-04-07T03:58:04.176Z,2.47
2023-04-07T04:00:33.240Z,2.60
2023-04-07T04:03:01.166Z,2.90
2023-04-07T04:05:28.271Z,2.85
2023-04-07T04:07:55.138Z,2.53
2023-04-07T04:10:22.044Z,2.88
2023-04-07T04:12:49.579Z,3.15
2023-04-07T04:15:16.917Z,3.25
2023-04-07T04:17:43.861Z,2.38
2023-04-07T04:20:11.263Z,2.75
2023-04-07T04:22:38.122Z,3.00
2023-04-07T04:25:05.313Z,3.45
2023-04-07T04:27:32.145Z,2.83
2023-04-07T04:29:59.011Z,2.65
2023-04-07T04:32:25.890Z,3.67
2023-04-07T04:34:52.798Z,2.67
2023-04-07T04:37:19.625Z,3.10
2023-04-07T04:39:46.624Z,2.72
2023-04-07T04:42:13.523Z,5.55
2023-04-07T04:44:40.407Z,3.08
2023-04-07T04:47:07.349Z,2.55
2023-04-07T04:49:34.257Z,3.25
2023-04-07T04:52:01.222Z,3.38
2023-04-07T04:54:28.115Z,2.70
2023-04-07T04:56:57.202Z,3.00
2023-04-07T04:59:24.279Z,3.92
2023-04-07T05:01:51.283Z,2.83
2023-04-07T05:04:18.644Z,3.58
2023-04-07T05:06:45.757Z,6.05
2023-04-07T05:09:12.602Z,2.78
2023-04-07T05:11:42.137Z,3.60
2023-04-07T05:14:09.025Z,3.20
2023-04-07T05:16:36.730Z,3.72
2023-04-07T05:19:03.692Z,3.65
2023-04-07T05:21:30.758Z,3.45
2023-04-07T05:23:57.603Z,3.47
2023-04-07T05:26:24.437Z,3.42
2023-04-07T05:28:51.698Z,3.72
2023-04-07T05:31:18.608Z,3.45
2023-04-07T05:33:45.418Z,3.13
2023-04-07T05:36:12.259Z,3.92
2023-04-07T05:38:39.102Z,4.10
2023-04-07T05:41:06.383Z,3.05
2023-04-07T05:43:33.313Z,5.65
2023-04-07T05:46:00.202Z,3.78
2023-04-07T05:48:27.126Z,3.83
2023-04-07T05:50:54.003Z,3.42
2023-04-07T05:53:20.956Z,4.35
2023-04-07T05:55:47.780Z,3.50
2023-04-07T05:58:14.643Z,4.10
2023-04-07T06:00:41.924Z,3.47
2023-04-07T06:03:08.864Z,3.22
2023-04-07T06:05:35.914Z,4.10
2023-04-07T06:08:02.778Z,5.43
2023-04-07T06:10:29.760Z,3.63
2023-04-07T06:12:56.621Z,3.90
2023-04-07T06:15:24.333Z,3.42
2023-04-07T06:17:51.219Z,3.85
2023-04-07T06:20:19.974Z,4.65
2023-04-07T06:22:47.216Z,4.45
2023-04-07T06:25:14.372Z,4.57
2023-04-07T06:27:41.274Z,3.90
2023-04-07T06:30:09.236Z,4.45
2023-04-07T06:32:36.116Z,3.72
2023-04-07T06:35:03.434Z,3.67
2023-04-07T06:37:30.547Z,3.63
2023-04-07T06:39:57.672Z,3.58
2023-04-07T06:42:28.133Z,3.28
2023-04-07T06:44:54.910Z,4.10
2023-04-07T06:47:21.898Z,4.05
2023-04-07T06:49:48.694Z,4.05
2023-04-07T06:52:16.419Z,5.63
2023-04-07T06:54:43.250Z,4.20
2023-04-07T06:57:12.120Z,4.05
2023-04-07T06:59:39.513Z,4.65
2023-04-07T07:02:07.653Z,3.83
2023-04-07T07:04:35.649Z,4.07
2023-04-07T07:07:03.366Z,4.13
2023-04-07T07:09:30.270Z,4.15
2023-04-07T07:11:57.666Z,3.88
2023-04-07T07:14:24.623Z,3.90
2023-04-07T07:16:51.452Z,4.30
2023-04-07T07:19:18.296Z,4.05
2023-04-07T07:21:45.339Z,4.38
2023-04-07T07:24:12.149Z,5.20
2023-04-07T07:26:38.999Z,3.67
2023-04-07T07:29:05.884Z,4.38
2023-04-07T07:31:32.941Z,4.78
2023-04-07T07:34:00.814Z,3.95
2023-04-07T07:36:27.660Z,3.65
2023-04-07T07:38:54.471Z,3.90
2023-04-07T07:41:21.331Z,4.00
2023-04-07T07:43:48.577Z,4.38
2023-04-07T07:46:15.873Z,4.03
2023-04-07T07:48:42.737Z,3.90
2023-04-07T07:51:09.600Z,4.05
2023-04-07T07:53:36.404Z,7.85
2023-04-07T07:56:03.328Z,3.47
2023-04-07T07:58:30.150Z,3.72
2023-04-07T08:00:56.994Z,4.07
2023-04-07T08:03:24.615Z,3.70
2023-04-07T08:05:51.660Z,4.40
2023-04-07T08:08:18.677Z,3.33
2023-04-07T08:10:45.702Z,3.53
2023-04-07T08:13:12.554Z,3.38
2023-04-07T08:15:40.373Z,3.25
2023-04-07T08:18:07.438Z,5.60
2023-04-07T08:20:34.504Z,3.88
2023-04-07T08:23:04.928Z,3.83
2023-04-07T08:25:32.131Z,4.47
2023-04-07T08:27:59.094Z,3.33
2023-04-07T08:30:26.277Z,5.05
2023-04-07T08:32:53.715Z,4.22
2023-04-07T08:35:20.870Z,3.38
2023-04-07T08:37:47.669Z,3.17
2023-04-07T08:40:14.644Z,4.07
2023-04-07T08:42:47.114Z,3.45
2023-04-07T08:45:14.088Z,3.30
2023-04-07T08:47:41.996Z,3.90
2023-04-07T08:50:11.470Z,3.67
2023-04-07T08:52:55.254Z,2.83
2023-04-07T08:55:22.565Z,3.55
2023-04-07T08:57:51.236Z,3.80
2023-04-07T09:00:18.644Z,3.38
2023-04-07T09:02:46.073Z,3.42
2023-04-07T09:05:16.821Z,3.13
2023-04-07T09:07:44.030Z,3.25
2023-04-07T09:10:11.237Z,3.67
2023-04-07T09:12:38.960Z,2.95
2023-04-07T09:15:07.791Z,3.60
2023-04-07T09:17:34.812Z,3.30
2023-04-07T09:20:02.945Z,2.72
2023-04-07T09:22:45.435Z,2.63
2023-04-07T09:25:24.087Z,2.30
2023-04-07T09:28:01.762Z,3.13
2023-04-07T09:30:33.694Z,3.08
2023-04-07T09:33:01.920Z,3.05
2023-04-07T09:35:29.910Z,2.58
2023-04-07T09:38:05.764Z,3.58
2023-04-07T09:40:32.859Z,3.15
2023-04-07T09:43:02.090Z,2.03
2023-04-07T09:45:35.021Z,2.30
2023-04-07T09:48:19.253Z,3.60
2023-04-07T09:50:49.613Z,2.08
2023-04-07T09:53:17.070Z,2.60
2023-04-07T09:55:45.184Z,2.78
2023-04-07T09:58:16.421Z,2.92
2023-04-07T10:00:44.289Z,2.58
2023-04-07T10:03:12.204Z,2.85
2023-04-07T10:05:39.537Z,2.42
2023-04-07T10:08:06.908Z,2.22
2023-04-07T10:10:37.062Z,2.58
2023-04-07T10:13:06.722Z,2.70
2023-04-07T10:15:34.143Z,2.35
2023-04-07T10:18:07.330Z,2.50
2023-04-07T10:20:35.197Z,2.70
2023-04-07T10:23:19.150Z,2.60
2023-04-07T10:25:50.396Z,2.47
2023-04-07T10:28:19.669Z,2.72
2023-04-07T10:30:49.093Z,2.53
2023-04-07T10:33:15.990Z,2.35
2023-04-07T10:36:08.273Z,2.38
2023-04-07T10:38:35.418Z,3.20
2023-04-07T10:41:41.877Z,2.92
2023-04-07T10:44:40.861Z,2.80
2023-04-07T10:47:08.632Z,2.83
2023-04-07T10:49:36.594Z,2.35
2023-04-07T10:52:12.416Z,2.80
2023-04-07T10:54:40.501Z,3.05
2023-04-07T10:57:10.118Z,2.55
2023-04-07T10:59:39.913Z,2.95
2023-04-07T11:02:12.656Z,2.70
2023-04-07T11:04:45.883Z,3.00
2023-04-07T11:07:15.576Z,2.92
2023-04-07T11:09:42.716Z,2.88
2023-04-07T11:12:22.459Z,2.85
2023-04-07T11:14:49.631Z,4.50
2023-04-07T11:17:17.558Z,2.80
2023-04-07T11:19:54.383Z,3.67
2023-04-07T11:24:51.016Z,2.75
2023-04-07T11:27:17.924Z,2.90
2023-04-07T11:29:44.833Z,3.13
2023-04-07T11:32:13.159Z,2.90
2023-04-07T11:34:40.443Z,3.25
2023-04-07T11:37:28.730Z,3.08
2023-04-07T11:39:57.951Z,3.38
2023-04-07T11:42:36.161Z,2.80
2023-04-07T11:45:03.522Z,3.53
2023-04-07T11:47:39.024Z,3.17
2023-04-07T11:50:07.551Z,3.05
2023-04-07T11:52:48.189Z,3.22
2023-04-07T11:55:22.467Z,3.20
2023-04-07T11:57:51.778Z,2.42
2023-04-07T12:00:20.348Z,2.88
2023-04-07T12:02:47.678Z,3.58
2023-04-07T12:05:15.018Z,3.40
2023-04-07T12:07:54.582Z,3.03
2023-04-07T12:10:25.589Z,3.17
2023-04-07T12:12:53.382Z,3.22
2023-04-07T12:15:21.633Z,2.58
2023-04-07T12:17:49.320Z,2.65
2023-04-07T12:20:16.831Z,2.92
2023-04-07T12:22:43.639Z,2.80
2023-04-07T12:25:10.872Z,2.65
2023-04-07T12:27:43.403Z,3.42
2023-04-07T12:30:12.976Z,2.90
2023-04-07T12:32:40.268Z,3.10
2023-04-07T12:35:07.468Z,3.30
2023-04-07T12:37:34.310Z,4.20
2023-04-07T12:40:01.152Z,3.17
2023-04-07T12:42:28.118Z,3.38
2023-04-07T12:44:55.079Z,3.10
2023-04-07T12:47:21.999Z,2.88
2023-04-07T12:49:50.081Z,2.83
2023-04-07T12:52:17.458Z,3.20
2023-04-07T12:54:45.366Z,2.97
2023-04-07T12:57:12.610Z,3.28
2023-04-07T12:59:39.470Z,3.05
2023-04-07T13:02:06.888Z,3.85
2023-04-07T13:04:35.158Z,3.42
2023-04-07T13:07:03.153Z,3.30
2023-04-07T13:09:30.280Z,3.08
2023-04-07T13:11:57.845Z,3.63
2023-04-07T13:14:24.992Z,3.25
2023-04-07T13:16:52.049Z,4.13
2023-04-07T13:19:19.039Z,4.40
2023-04-07T13:21:47.789Z,3.78
2023-04-07T13:24:15.436Z,3.45
2023-04-07T13:26:42.404Z,3.20
2023-04-07T13:29:09.241Z,3.83
2023-04-07T13:31:36.297Z,4.22
2023-04-07T13:34:03.189Z,2.90
2023-04-07T13:36:30.204Z,3.20
2023-04-07T13:38:57.333Z,3.15
2023-04-07T13:41:24.187Z,3.13
2023-04-07T13:43:51.392Z,3.90
2023-04-07T13:46:27.337Z,3.63
2023-04-07T13:48:55.453Z,3.70
2023-04-07T13:51:22.924Z,3.53
2023-04-07T13:53:49.999Z,4.30
2023-04-07T13:56:17.130Z,4.07
2023-04-07T13:58:44.415Z,3.95
2023-04-07T14:01:11.484Z,3.78
2023-04-07T14:03:38.734Z,3.42
2023-04-07T14:06:05.875Z,3.80
2023-04-07T14:08:32.743Z,3.80
2023-04-07T14:10:59.671Z,3.17
2023-04-07T14:13:27.137Z,3.22
2023-04-07T14:15:54.110Z,4.20
2023-04-07T14:18:21.181Z,3.13
2023-04-07T14:20:48.130Z,3.35
2023-04-07T14:23:20.639Z,3.17
2023-04-07T14:25:53.295Z,3.55
2023-04-07T14:28:21.136Z,3.88
2023-04-07T14:30:48.241Z,3.15
2023-04-07T14:33:17.243Z,3.38
2023-04-07T14:35:44.492Z,3.03
2023-04-07T14:38:11.524Z,3.38
2023-04-07T14:40:40.623Z,3.20
2023-04-07T14:43:07.952Z,2.83
2023-04-07T14:45:35.752Z,2.55
2023-04-07T14:48:02.770Z,2.15
2023-04-07T14:50:33.701Z,3.33
2023-04-07T14:53:01.467Z,3.10
2023-04-07T14:55:28.305Z,2.70
2023-04-07T14:57:55.180Z,1.98
2023-04-07T15:00:22.257Z,2.80
2023-04-07T15:02:49.309Z,2.08
2023-04-07T15:05:16.380Z,2.30
2023-04-07T15:07:45.817Z,2.38
2023-04-07T15:10:12.693Z,2.33
2023-04-07T15:12:39.628Z,2.90
2023-04-07T15:15:06.982Z,2.75
2023-04-07T15:17:43.202Z,2.53
2023-04-07T15:20:12.920Z,2.70
2023-04-07T15:22:40.165Z,2.00
2023-04-07T15:25:07.952Z,2.30
2023-04-07T15:27:34.834Z,2.47
2023-04-07T15:30:01.634Z,2.28
2023-04-07T15:32:31.889Z,2.28
2023-04-07T15:34:58.817Z,2.65
2023-04-07T15:37:26.520Z,2.10
2023-04-07T15:39:53.438Z,2.75
2023-04-07T15:42:20.328Z,2.33
2023-04-07T15:44:47.220Z,2.38
2023-04-07T15:47:14.043Z,3.00
2023-04-07T15:49:42.235Z,2.13
2023-04-07T15:52:09.367Z,2.60
2023-04-07T15:54:36.200Z,3.10
2023-04-07T15:57:03.282Z,2.85
2023-04-07T15:59:31.175Z,2.58
2023-04-07T16:01:58.740Z,3.45
2023-04-07T16:04:25.769Z,2.50
2023-04-07T16:06:52.725Z,2.60
2023-04-07T16:09:19.512Z,2.20
2023-04-07T16:11:46.334Z,2.42
2023-04-07T16:14:13.171Z,2.40
2023-04-07T16:16:41.433Z,2.47
2023-04-07T16:19:08.359Z,2.22
2023-04-07T16:21:35.342Z,1.95
2023-04-07T16:24:02.187Z,2.15
2023-04-07T16:26:29.012Z,2.65
2023-04-07T16:28:55.880Z,2.55
2023-04-07T16:31:22.802Z,2.97
2023-04-07T16:33:51.168Z,2.28
2023-04-07T16:36:18.069Z,2.67
2023-04-07T16:38:45.085Z,2.40
2023-04-07T16:41:11.939Z,2.28
2023-04-07T16:43:38.891Z,2.13
2023-04-07T16:46:06.149Z,2.70
2023-04-07T16:48:33.380Z,2.58
2023-04-07T16:51:00.383Z,2.78
2023-04-07T16:53:27.218Z,3.08
2023-04-07T16:55:54.083Z,2.50
2023-04-07T16:58:21.005Z,3.90
2023-04-07T17:00:47.860Z,3.10
2023-04-07T17:03:15.420Z,3.08
2023-04-07T17:05:44.723Z,2.70
2023-04-07T17:08:11.890Z,4.00
2023-04-07T17:10:38.692Z,3.30
2023-04-07T17:13:05.710Z,3.83
2023-04-07T17:15:37.869Z,4.30
2023-04-07T17:18:04.909Z,5.32
2023-04-07T17:20:31.787Z,4.18
2023-04-07T17:22:58.651Z,3.60
2023-04-07T17:25:25.575Z,3.10
2023-04-07T17:27:54.966Z,2.90
2023-04-07T17:30:22.109Z,2.88
2023-04-07T17:32:53.684Z,3.03
2023-04-07T17:35:21.310Z,2.45
2023-04-07T17:37:48.578Z,2.70
2023-04-07T17:40:15.467Z,2.30
2023-04-07T17:42:42.905Z,2.63
2023-04-07T17:45:10.901Z,2.47
2023-04-07T17:47:37.920Z,3.33
2023-04-07T17:50:05.679Z,2.83
2023-04-07T17:52:32.733Z,2.70
2023-04-07T17:54:59.615Z,2.88
2023-04-07T17:57:26.487Z,3.13
2023-04-07T17:59:53.459Z,2.67
2023-04-07T18:02:20.488Z,2.55
2023-04-07T18:04:47.704Z,3.03
2023-04-07T18:07:14.926Z,2.60
2023-04-07T18:09:42.970Z,2.40
2023-04-07T18:12:09.938Z,2.47
2023-04-07T18:14:36.776Z,3.33
2023-04-07T18:17:03.719Z,3.17
2023-04-07T18:19:30.547Z,2.80
2023-04-07T18:21:57.391Z,3.00
2023-04-07T18:24:24.315Z,2.75
2023-04-07T18:26:51.242Z,3.63
2023-04-07T18:29:18.104Z,3.17
2023-04-07T18:31:45.200Z,3.40
2023-04-07T18:34:12.661Z,3.00
2023-04-07T18:36:42.973Z,3.85
2023-04-07T18:39:10.773Z,3.78
2023-04-07T18:41:37.720Z,2.90
2023-04-07T18:44:04.565Z,3.10
2023-04-07T18:46:31.505Z,2.95
2023-04-07T18:48:58.340Z,3.13
2023-04-07T18:51:25.124Z,3.00
2023-04-07T18:53:51.998Z,3.08
2023-04-07T18:56:20.955Z,3.53
2023-04-07T18:58:48.804Z,3.30
2023-04-07T19:01:15.740Z,3.78
2023-04-07T19:03:42.860Z,3.88
2023-04-07T19:06:14.760Z,3.83
2023-04-07T19:08:42.744Z,4.18
2023-04-07T19:11:10.229Z,4.03
2023-04-07T19:13:37.171Z,4.78
2023-04-07T19:16:04.191Z,4.75
2023-04-07T19:18:31.842Z,5.53
2023-04-07T19:20:58.832Z,5.05
2023-04-07T19:23:26.086Z,5.63
2023-04-07T19:25:53.027Z,13.60
2023-04-07T19:28:19.976Z,7.90
2023-04-07T19:30:46.840Z,10.30
2023-04-07T19:33:13.754Z,19.15
2023-04-07T19:35:41.303Z,13.70
2023-04-07T19:38:08.238Z,17.27
2023-04-07T19:40:36.413Z,15.75
2023-04-07T19:43:03.446Z,26.10
2023-04-07T19:45:30.314Z,40.85
2023-04-07T19:47:58.114Z,41.90
2023-04-07T19:50:25.536Z,48.25
2023-04-07T19:52:53.356Z,47.75
2023-04-07T19:55:20.674Z,38.47
2023-04-07T19:57:47.522Z,27.42
2023-04-07T20:00:14.919Z,24.52
2023-04-07T20:02:41.978Z,30.15
2023-04-07T20:05:09.587Z,37.15
2023-04-07T20:07:36.740Z,30.48
2023-04-07T20:10:03.931Z,25.83
2023-04-07T20:12:30.906Z,21.35
2023-04-07T20:14:57.747Z,13.35
2023-04-07T20:17:24.697Z,8.38
2023-04-07T20:19:55.584Z,7.43
2023-04-07T20:24:49.773Z,4.00
2023-04-07T20:27:16.722Z,5.15
2023-04-07T20:29:43.851Z,5.05
2023-04-07T20:32:11.263Z,4.78
2023-04-07T20:34:38.168Z,4.47
2023-04-07T20:37:05.324Z,4.53
2023-04-07T20:39:35.245Z,6.18
2023-04-07T20:42:03.050Z,4.83
2023-04-07T20:44:31.370Z,5.45
2023-04-07T20:46:58.210Z,4.97
2023-04-07T20:49:25.170Z,5.70
2023-04-07T20:51:52.071Z,4.70
2023-04-07T20:54:18.895Z,5.25
2023-04-07T20:56:46.444Z,5.55
2023-04-07T20:59:13.327Z,5.32
2023-04-07T21:01:40.485Z,5.95
2023-04-07T21:04:07.594Z,5.35
2023-04-07T21:06:34.538Z,5.47
2023-04-07T21:09:02.384Z,5.93
2023-04-07T21:11:29.269Z,5.07
2023-04-07T21:13:56.115Z,6.43
2023-04-07T21:16:23.184Z,4.80
2023-04-07T21:18:50.765Z,5.05
2023-04-07T21:21:17.886Z,4.65
2023-04-07T21:23:44.837Z,5.05
2023-04-07T21:26:11.741Z,5.10
2023-04-07T21:28:40.459Z,4.75
2023-04-07T21:31:08.966Z,5.68
2023-04-07T21:33:36.102Z,4.15
2023-04-07T21:36:03.884Z,4.38
2023-04-07T21:38:31.505Z,4.15
2023-04-07T21:40:58.362Z,4.18
2023-04-07T21:43:25.248Z,4.88
2023-04-07T21:45:52.275Z,4.90
2023-04-07T21:48:23.365Z,5.00
2023-04-07T21:50:53.558Z,6.70
2023-04-07T21:53:20.493Z,6.00
2023-04-07T21:55:47.381Z,3.88
2023-04-07T21:58:14.278Z,4.47
2023-04-07T22:00:41.185Z,5.20
2023-04-07T22:03:08.281Z,4.93
2023-04-07T22:05:35.466Z,6.28
2023-04-07T22:08:03.148Z,5.90
2023-04-07T22:10:30.405Z,4.57
2023-04-07T22:12:57.395Z,4.28
2023-04-07T22:15:24.276Z,6.60
2023-04-07T22:17:51.162Z,5.28
2023-04-07T22:20:17.991Z,4.10
2023-04-07T22:22:44.799Z,3.72
2023-04-07T22:25:11.606Z,4.18
2023-04-07T22:27:38.443Z,4.57
2023-04-07T22:30:09.798Z,4.60
2023-04-07T22:32:41.450Z,3.67
2023-04-07T22:35:09.033Z,4.43
2023-04-07T22:37:35.905Z,4.55
2023-04-07T22:40:03.168Z,3.88
2023-04-07T22:42:29.984Z,4.85
2023-04-07T22:44:56.854Z,5.40
2023-04-07T22:47:23.675Z,4.60
2023-04-07T22:49:50.710Z,3.75
2023-04-07T22:52:17.510Z,6.75
2023-04-07T22:54:44.360Z,4.47
2023-04-07T22:57:11.380Z,4.05
2023-04-07T22:59:38.192Z,4.65
2023-04-07T23:02:05.074Z,4.30
2023-04-07T23:04:32.146Z,4.30
2023-04-07T23:06:59.031Z,6.25
2023-04-07T23:09:26.379Z,5.20
2023-04-07T23:11:53.238Z,4.38
2023-04-07T23:14:20.292Z,4.95
2023-04-07T23:16:47.249Z,3.97
2023-04-07T23:19:15.847Z,4.13
2023-04-07T23:21:43.392Z,4.40
2023-04-07T23:24:10.316Z,4.03
2023-04-07T23:26:37.165Z,4.47
2023-04-07T23:29:04.148Z,4.10
2023-04-07T23:31:31.562Z,4.60
2023-04-07T23:33:59.626Z,4.03
2023-04-07T23:36:27.232Z,5.15
2023-04-07T23:38:58.389Z,4.47
2023-04-07T23:41:25.546Z,4.95
2023-04-07T23:43:52.385Z,4.53
2023-04-07T23:46:19.328Z,4.60
2023-04-07T23:48:46.281Z,4.57
2023-04-07T23:51:13.442Z,5.10
2023-04-07T23:53:40.305Z,4.72
2023-04-07T23:56:07.824Z,4.65
2023-04-07T23:58:34.725Z,4.97
